Decoded Metar for LFTW (NIMES in FRANCE) (IATA:FNI) | Meteo·Mobile Aviation Weather
aviador You're here:

LFTW Decoded Metar

NIMES in FRANCE
Report Time2019-07-21 17:30:00
UTC Time2019-07-21 17:41:33
Flight Rules vfr VFR
Wind210° at 08 kt
W.Decomp.*RWY 18: 7.0 kt HW 3.9 kt RCW
Visibility9999 m
Phenomena:N/A
Clouds:N/A
Expected CloudBase > 5,600 ft AGL from Temp-Dew spread
CeilingNone
Temp30°C (ISA +16)
Dew Point16°C (43% RH)
Heat Index30.1°C
AAT29.1°C
QNH1019 hPa
Density Alt2,149 ft
Elevation315 ft
Report Wrong Elevation
Raw Report
METAR LFTW 211730Z AUTO 21008KT 180V260 CAVOK 30/16 Q1019 NOSIG=

Extra information for LFTW:More info

Metar Taf Metar & Taf Last 4 Metars F.Rules Stats Wind Profile Meteogram Temp Stats Airport Information Weather charts Add Link Nearby VenuesMetar ALERT Operation Metar Decoded Social comments